Swinomish — WC5223 — position and weather

sailwx.info

Track history (hours):
 
Tides and Currents Weather Stations Pressure Air Temp Water Temp Dewpoint Dewpoint Depression Visibility Wind Speed Wind Dir Waves Ship Positions

Swinomish

Owner: DUNLAP TOWING CO, LA CONNER, WA. More information available from US FCC via Universal Licensing System and Coast Guard Vessel Documentation Center.

Last reported at 2015-Jan-25 19:33 UTC. Time now 2015-Jan-25 20:24 UTC.
Position N 48°36' W 123°00'.

Length 15 m; draft 3.5 m.

Type: Tug. MMSI: 366972050.

Date/timePositionNaut miles runAvg speedWind from/ knotsBaromVisibWave heightAir tempDewpointWater temp
2015-Jan-25 19:33N 48°36' W 123°00'0 0.0
2015-Jan-25 18:33N 48°36' W 123°00'0 0.0
2015-Jan-25 17:33N 48°36' W 123°00'0 0.0
2015-Jan-25 16:33N 48°36' W 123°00'0 0.0
2015-Jan-25 15:33N 48°36' W 123°00'0 0.0
2015-Jan-25 14:33N 48°36' W 123°00'0 0.0
2015-Jan-25 13:33N 48°36' W 123°00'0 0.1
2015-Jan-25 12:33N 48°36' W 123°00'0 0.0
2015-Jan-25 11:33N 48°36' W 123°00'0 0.0
2015-Jan-25 10:33N 48°36' W 123°00'0 0.0
2015-Jan-25 09:33N 48°36' W 123°00'0 0.0
2015-Jan-25 08:33N 48°36' W 123°00'1 0.6
2015-Jan-25 07:33N 48°36' W 123°01'2 1.8
2015-Jan-25 06:33N 48°38' W 123°02'3 3.2
2015-Jan-25 05:33N 48°41' W 122°59'2 2.3
2015-Jan-25 04:30N 48°43' W 122°59'1 1.4
2015-Jan-25 03:32N 48°44' W 123°01'1 1.4
2015-Jan-25 02:33N 48°44' W 123°03'3 2.3
2015-Jan-25 01:29N 48°43' W 123°06'2 1.9
2015-Jan-25 00:33N 48°43' W 123°09'1 1.0
2015-Jan-24 23:33N 48°44' W 123°09'1 0.6
2015-Jan-24 22:33N 48°45' W 123°09'1 1.1
2015-Jan-24 21:33N 48°45' W 123°11'1 1.2
2015-Jan-24 20:33N 48°46' W 123°12'1 1.2
2015-Jan-24 19:33N 48°47' W 123°13'1 0.7
2015-Jan-24 18:33N 48°48' W 123°13'0 0.4
2015-Jan-24 17:27N 48°48' W 123°13'0 0.0
2015-Jan-24 16:33N 48°48' W 123°13'0 0.1
2015-Jan-24 15:33N 48°48' W 123°13'0 0.0
2015-Jan-24 14:33N 48°48' W 123°13'0 0.0
2015-Jan-24 13:32N 48°48' W 123°13'0 0.0
2015-Jan-24 12:33N 48°48' W 123°13'0 0.0
2015-Jan-24 11:33N 48°48' W 123°13'0 0.0
2015-Jan-24 10:33N 48°48' W 123°13'0 0.0
2015-Jan-24 09:33N 48°48' W 123°13'0 0.0
2015-Jan-24 08:33N 48°48' W 123°13'0 0.0
2015-Jan-24 07:33N 48°48' W 123°13'0 0.0
2015-Jan-24 06:33N 48°48' W 123°13'0 0.1
2015-Jan-24 05:33N 48°48' W 123°13'1 0.8
2015-Jan-24 04:32N 48°48' W 123°14'0 0.3
2015-Jan-24 03:28N 48°47' W 123°15'0 0.0
2015-Jan-24 02:33N 48°47' W 123°15'0 0.1
2015-Jan-24 01:33N 48°47' W 123°14'1 0.7
2015-Jan-24 00:33N 48°48' W 123°15'1 1.1
2015-Jan-23 23:33N 48°49' W 123°16'1 1.0
2015-Jan-23 22:30N 48°49' W 123°18'1 1.1
2015-Jan-23 21:32N 48°50' W 123°19'2 1.7
2015-Jan-23 20:26N 48°51' W 123°21'1 1.3
2015-Jan-23 19:32N 48°51' W 123°23'1 1.2
2015-Jan-23 18:32N 48°52' W 123°25'2 1.6
2015-Jan-23 17:27N 48°53' W 123°27'3 1.6
2015-Jan-23 15:25N 48°55' W 123°30'1 1.2
2015-Jan-23 14:10N 48°56' W 123°32'0 0.5
2015-Jan-23 13:25N 48°57' W 123°32'0 0.4
2015-Jan-23 12:11N 48°57' W 123°33'1 0.9
2015-Jan-23 11:29N 48°57' W 123°33'1 1.0
2015-Jan-23 10:29N 48°58' W 123°34'3 1.3
2015-Jan-23 08:33N 48°60' W 123°37'1 1.3
2015-Jan-23 07:32N 49°01' W 123°38'1 0.1
2015-Jan-22 22:06N 49°00' W 123°37'710.9
2015-Jan-22 21:27N 48°55' W 123°30'1110.5
2015-Jan-22 20:22N 48°48' W 123°15'911.1
2015-Jan-22 19:33N 48°44' W 123°03'1110.8
2015-Jan-22 18:33N 48°41' W 122°47'9 9.5
2015-Jan-22 17:33N 48°35' W 122°36'9 9.4
2015-Jan-22 16:33N 48°27' W 122°30'3 2.8
2015-Jan-22 15:34N 48°24' W 122°30'0 0.0
2015-Jan-22 14:33N 48°24' W 122°30'0 0.0
2015-Jan-22 13:33N 48°24' W 122°30'4 3.6
2015-Jan-22 12:33N 48°27' W 122°31'6 5.6
2015-Jan-22 11:33N 48°31' W 122°37'5 4.7
2015-Jan-22 10:34N 48°29' W 122°43'7 6.7
2015-Jan-22 09:30N 48°26' W 122°34'0 0.1
2015-Jan-22 08:32N 48°26' W 122°34'2 1.6
2015-Jan-22 07:14N 48°25' W 122°37'1 2.1
2015-Jan-22 06:33N 48°24' W 122°39'1 0.5
2015-Jan-22 05:23N 48°25' W 122°40'0 0.5
2015-Jan-22 04:33N 48°25' W 122°40'1 1.3
2015-Jan-22 03:33N 48°26' W 122°41'3 2.8
2015-Jan-22 02:33N 48°28' W 122°43'2 2.4
2015-Jan-22 01:33N 48°30' W 122°45'1 1.2
2015-Jan-22 00:33N 48°31' W 122°46'1 1.0
2015-Jan-21 23:33N 48°32' W 122°47'1 0.8
2015-Jan-21 22:50N 48°32' W 122°48'0 0.7
2015-Jan-21 22:46N 48°32' W 122°48'0 0.8
2015-Jan-21 22:33N 48°32' W 122°49'1 0.9
2015-Jan-21 21:33N 48°32' W 122°50'0 0.2
2015-Jan-21 20:33N 48°32' W 122°50'1 1.1
2015-Jan-21 19:33N 48°33' W 122°50'1 1.2
2015-Jan-21 18:33N 48°34' W 122°51'1 1.5
2015-Jan-21 17:33N 48°35' W 122°53'2 1.8
2015-Jan-21 16:33N 48°35' W 122°56'2 1.6
2015-Jan-21 15:33N 48°36' W 122°58'1 1.1
2015-Jan-21 14:33N 48°36' W 122°59'0 0.3
2015-Jan-21 13:33N 48°35' W 122°60'1 0.6
2015-Jan-21 12:33N 48°36' W 123°01'1 0.6
2015-Jan-21 11:34N 48°36' W 123°00'0 0.0
2015-Jan-21 10:33N 48°36' W 123°00'0 0.0
2015-Jan-21 09:33N 48°36' W 123°00'0 0.0
2015-Jan-21 08:33N 48°36' W 123°00'0 0.0
2015-Jan-21 07:33N 48°36' W 123°00'0 0.0
2015-Jan-21 06:33N 48°36' W 123°00'0 0.0
2015-Jan-21 05:33N 48°36' W 123°00'0 0.0
2015-Jan-21 04:33N 48°36' W 123°00'0 0.0
2015-Jan-21 03:33N 48°36' W 123°00'0 0.0
2015-Jan-21 02:33N 48°36' W 123°00'0 0.0
2015-Jan-21 01:33N 48°36' W 123°00'0 0.0
2015-Jan-21 00:33N 48°36' W 123°00'0 0.0
2015-Jan-20 23:33N 48°36' W 123°00'0 0.1
2015-Jan-20 22:33N 48°36' W 123°00'0 0.0
2015-Jan-20 21:33N 48°36' W 123°00'0 0.0
2015-Jan-20 20:34N 48°36' W 123°00'0 0.0
2015-Jan-20 19:34N 48°36' W 123°00'0 0.1
2015-Jan-20 18:33N 48°36' W 123°00'0 0.3
2015-Jan-20 17:33N 48°36' W 123°01'1 1.1
2015-Jan-20 16:34N 48°37' W 123°02'2 2.0
2015-Jan-20 15:33N 48°39' W 123°02'2 2.0
2015-Jan-20 14:33N 48°40' W 122°60'1 1.3
2015-Jan-20 13:33N 48°42' W 122°60'0 0.4
2015-Jan-20 12:33N 48°42' W 122°60'1 1.1
2015-Jan-20 11:33N 48°43' W 122°60'1 1.0
2015-Jan-20 10:34N 48°44' W 123°00'2 1.8
2015-Jan-20 09:33N 48°44' W 123°03'3 3.4
2015-Jan-20 08:33N 48°42' W 123°07'1 1.4
2015-Jan-20 07:32N 48°43' W 123°09'1 1.0
2015-Jan-20 06:33N 48°44' W 123°09'1 1.4
2015-Jan-20 05:33N 48°45' W 123°10'1 1.3
2015-Jan-20 04:33N 48°46' W 123°12'1 1.0
2015-Jan-20 03:33N 48°46' W 123°13'1 0.5
2015-Jan-20 02:32N 48°46' W 123°12'0 0.4
2015-Jan-20 01:33N 48°46' W 123°12'0 0.2
2015-Jan-20 00:33N 48°46' W 123°12'1 0.5
2015-Jan-19 23:33N 48°46' W 123°12'1 1.3
2015-Jan-19 22:33N 48°47' W 123°14'1 1.2
2015-Jan-19 21:33N 48°48' W 123°15'1 1.0
2015-Jan-19 20:28N 48°49' W 123°16'3 1.5
2015-Jan-19 18:33N 48°50' W 123°20'2 2.0
2015-Jan-19 17:30N 48°51' W 123°22'1 1.5
2015-Jan-19 16:32N 48°51' W 123°24'1 1.1
2015-Jan-19 15:32N 48°52' W 123°25'1 0.6
2015-Jan-19 14:33N 48°52' W 123°26'2 1.5
2015-Jan-19 13:27N 48°54' W 123°28'2 1.7
2015-Jan-19 12:18N 48°55' W 123°30'1 1.2
2015-Jan-19 11:09N 48°56' W 123°31'0 0.8
2015-Jan-19 10:33N 48°56' W 123°32'1 0.5
2015-Jan-19 08:24N 48°57' W 123°33'1 1.1
2015-Jan-19 07:33N 48°58' W 123°34'1 1.4
2015-Jan-19 06:29N 48°59' W 123°35'2 1.7
2015-Jan-19 05:33N 49°00' W 123°37'2 1.8
2015-Jan-19 04:24N 49°02' W 123°39'2 1.9
2015-Jan-19 03:32N 49°03' W 123°40'2 1.7
2015-Jan-19 02:21N 49°05' W 123°42'1 1.6
2015-Jan-19 01:33N 49°06' W 123°42'1 0.8
2015-Jan-19 00:31N 49°07' W 123°43'0 0.0
2015-Jan-18 23:21N 49°07' W 123°43'0 0.0
2015-Jan-18 22:29N 49°07' W 123°43'0 0.0
2015-Jan-18 21:17N 49°07' W 123°43'0 0.0
2015-Jan-18 20:25N 49°07' W 123°43'0 0.0
2015-Jan-18 19:18N 49°07' W 123°43'0 0.0
2015-Jan-18 18:28N 49°07' W 123°43'0 0.0
2015-Jan-18 17:33N 49°07' W 123°43'0 0.0
2015-Jan-18 16:26N 49°07' W 123°43'0 0.0
2015-Jan-18 15:14N 49°07' W 123°43'0 0.0
2015-Jan-18 12:31N 49°07' W 123°43'0 0.1
2015-Jan-18 11:32N 49°07' W 123°43'0 0.2
2015-Jan-18 10:26N 49°07' W 123°43'0 0.2
2015-Jan-18 09:26N 49°07' W 123°43'0 0.1
2015-Jan-18 08:26N 49°07' W 123°43'7 1.9
2015-Jan-18 04:32N 49°01' W 123°37'4 2.8
2015-Jan-18 03:11N 48°57' W 123°33'2 2.4
2015-Jan-18 02:22N 48°56' W 123°31'2 2.4
2015-Jan-18 01:31N 48°55' W 123°29'5 2.3
2015-Jan-17 23:33N 48°52' W 123°24'3 2.7
2015-Jan-17 22:28N 48°50' W 123°20'4 3.2
2015-Jan-17 21:22N 48°49' W 123°15'3 3.1
2015-Jan-17 20:33N 48°46' W 123°13'3 3.1
2015-Jan-17 19:33N 48°45' W 123°09'3 2.8
2015-Jan-17 18:33N 48°42' W 123°08'4 3.5
2015-Jan-17 17:33N 48°39' W 123°05'3 3.4
2015-Jan-17 16:33N 48°37' W 123°02'2 2.4
2015-Jan-17 15:33N 48°36' W 122°58'3 2.7
2015-Jan-17 14:33N 48°35' W 122°54'3 3.3
2015-Jan-17 13:33N 48°33' W 122°50'3 2.8
2015-Jan-17 12:33N 48°32' W 122°47'3 3.4
2015-Jan-17 11:33N 48°30' W 122°43'3 2.8
2015-Jan-17 10:31N 48°27' W 122°41'3 2.9
2015-Jan-17 09:20N 48°24' W 122°38'3 3.5
2015-Jan-17 08:30N 48°26' W 122°34'4 4.4
2015-Jan-17 07:33N 48°22' W 122°32'3 2.7
2015-Jan-17 06:33N 48°24' W 122°30'0 0.0
2015-Jan-17 05:33N 48°24' W 122°30'0 0.0
2015-Jan-17 04:29N 48°24' W 122°30'0 0.0
2015-Jan-17 03:29N 48°24' W 122°30'0 0.0
2015-Jan-17 01:27N 48°24' W 122°30'0 0.0
2015-Jan-16 23:23N 48°24' W 122°30'7 6.3
2015-Jan-16 22:20N 48°17' W 122°30'810.5
2015-Jan-16 21:33N 48°09' W 122°32'1211.2
2015-Jan-16 20:26N 48°01' W 122°18'4 4.4
2015-Jan-16 19:33N 47°59' W 122°13'0 0.0
2015-Jan-16 18:33N 47°59' W 122°13'0 0.0
2015-Jan-16 03:10N 47°59' W 122°13'0 0.0
2015-Jan-16 02:12N 47°59' W 122°13'0 0.0
2015-Jan-16 01:33N 47°59' W 122°13'0 0.0
2015-Jan-16 00:33N 47°59' W 122°13'0 0.0
2015-Jan-15 23:33N 47°59' W 122°13'0 0.0
2015-Jan-15 22:33N 47°59' W 122°13'0 0.0
2015-Jan-15 21:33N 47°59' W 122°13'0 0.0
2015-Jan-15 20:33N 47°59' W 122°13'0 0.0
2015-Jan-15 19:33N 47°59' W 122°13'  
Track history (hours):
 
Tides and Currents Weather Stations Pressure Air Temp Water Temp Dewpoint Dewpoint Depression Visibility Wind Speed Wind Dir Waves Ship Positions

Swinomish

Owner: DUNLAP TOWING CO, LA CONNER, WA. More information available from US FCC via Universal Licensing System and Coast Guard Vessel Documentation Center.

Last reported at 2015-Jan-25 19:33 UTC. Time now 2015-Jan-25 20:24 UTC.
Position N 48°36' W 123°00'.

Length 15 m; draft 3.5 m.

Type: Tug. MMSI: 366972050.

Date/timePositionNaut miles runAvg speedWind from/ knotsBaromVisibWave heightAir tempDewpointWater temp
2015-Jan-25 19:33N 48°36' W 123°00'0 0.0
2015-Jan-25 18:33N 48°36' W 123°00'0 0.0
2015-Jan-25 17:33N 48°36' W 123°00'0 0.0
2015-Jan-25 16:33N 48°36' W 123°00'0 0.0
2015-Jan-25 15:33N 48°36' W 123°00'0 0.0
2015-Jan-25 14:33N 48°36' W 123°00'0 0.0
2015-Jan-25 13:33N 48°36' W 123°00'0 0.1
2015-Jan-25 12:33N 48°36' W 123°00'0 0.0
2015-Jan-25 11:33N 48°36' W 123°00'0 0.0
2015-Jan-25 10:33N 48°36' W 123°00'0 0.0
2015-Jan-25 09:33N 48°36' W 123°00'0 0.0
2015-Jan-25 08:33N 48°36' W 123°00'1 0.6
2015-Jan-25 07:33N 48°36' W 123°01'2 1.8
2015-Jan-25 06:33N 48°38' W 123°02'3 3.2
2015-Jan-25 05:33N 48°41' W 122°59'2 2.3
2015-Jan-25 04:30N 48°43' W 122°59'1 1.4
2015-Jan-25 03:32N 48°44' W 123°01'1 1.4
2015-Jan-25 02:33N 48°44' W 123°03'3 2.3
2015-Jan-25 01:29N 48°43' W 123°06'2 1.9
2015-Jan-25 00:33N 48°43' W 123°09'1 1.0
2015-Jan-24 23:33N 48°44' W 123°09'1 0.6
2015-Jan-24 22:33N 48°45' W 123°09'1 1.1
2015-Jan-24 21:33N 48°45' W 123°11'1 1.2
2015-Jan-24 20:33N 48°46' W 123°12'1 1.2
2015-Jan-24 19:33N 48°47' W 123°13'1 0.7
2015-Jan-24 18:33N 48°48' W 123°13'0 0.4
2015-Jan-24 17:27N 48°48' W 123°13'0 0.0
2015-Jan-24 16:33N 48°48' W 123°13'0 0.1
2015-Jan-24 15:33N 48°48' W 123°13'0 0.0
2015-Jan-24 14:33N 48°48' W 123°13'0 0.0
2015-Jan-24 13:32N 48°48' W 123°13'0 0.0
2015-Jan-24 12:33N 48°48' W 123°13'0 0.0
2015-Jan-24 11:33N 48°48' W 123°13'0 0.0
2015-Jan-24 10:33N 48°48' W 123°13'0 0.0
2015-Jan-24 09:33N 48°48' W 123°13'0 0.0
2015-Jan-24 08:33N 48°48' W 123°13'0 0.0
2015-Jan-24 07:33N 48°48' W 123°13'0 0.0
2015-Jan-24 06:33N 48°48' W 123°13'0 0.1
2015-Jan-24 05:33N 48°48' W 123°13'1 0.8
2015-Jan-24 04:32N 48°48' W 123°14'0 0.3
2015-Jan-24 03:28N 48°47' W 123°15'0 0.0
2015-Jan-24 02:33N 48°47' W 123°15'0 0.1
2015-Jan-24 01:33N 48°47' W 123°14'1 0.7
2015-Jan-24 00:33N 48°48' W 123°15'1 1.1
2015-Jan-23 23:33N 48°49' W 123°16'1 1.0
2015-Jan-23 22:30N 48°49' W 123°18'1 1.1
2015-Jan-23 21:32N 48°50' W 123°19'2 1.7
2015-Jan-23 20:26N 48°51' W 123°21'1 1.3
2015-Jan-23 19:32N 48°51' W 123°23'1 1.2
2015-Jan-23 18:32N 48°52' W 123°25'2 1.6
2015-Jan-23 17:27N 48°53' W 123°27'3 1.6
2015-Jan-23 15:25N 48°55' W 123°30'1 1.2
2015-Jan-23 14:10N 48°56' W 123°32'0 0.5
2015-Jan-23 13:25N 48°57' W 123°32'0 0.4
2015-Jan-23 12:11N 48°57' W 123°33'1 0.9
2015-Jan-23 11:29N 48°57' W 123°33'1 1.0
2015-Jan-23 10:29N 48°58' W 123°34'3 1.3
2015-Jan-23 08:33N 48°60' W 123°37'1 1.3
2015-Jan-23 07:32N 49°01' W 123°38'1 0.1
2015-Jan-22 22:06N 49°00' W 123°37'710.9
2015-Jan-22 21:27N 48°55' W 123°30'1110.5
2015-Jan-22 20:22N 48°48' W 123°15'911.1
2015-Jan-22 19:33N 48°44' W 123°03'1110.8
2015-Jan-22 18:33N 48°41' W 122°47'9 9.5
2015-Jan-22 17:33N 48°35' W 122°36'9 9.4
2015-Jan-22 16:33N 48°27' W 122°30'3 2.8
2015-Jan-22 15:34N 48°24' W 122°30'0 0.0
2015-Jan-22 14:33N 48°24' W 122°30'0 0.0
2015-Jan-22 13:33N 48°24' W 122°30'4 3.6
2015-Jan-22 12:33N 48°27' W 122°31'6 5.6
2015-Jan-22 11:33N 48°31' W 122°37'5 4.7
2015-Jan-22 10:34N 48°29' W 122°43'7 6.7
2015-Jan-22 09:30N 48°26' W 122°34'0 0.1
2015-Jan-22 08:32N 48°26' W 122°34'2 1.6
2015-Jan-22 07:14N 48°25' W 122°37'1 2.1
2015-Jan-22 06:33N 48°24' W 122°39'1 0.5
2015-Jan-22 05:23N 48°25' W 122°40'0 0.5
2015-Jan-22 04:33N 48°25' W 122°40'1 1.3
2015-Jan-22 03:33N 48°26' W 122°41'3 2.8
2015-Jan-22 02:33N 48°28' W 122°43'2 2.4
2015-Jan-22 01:33N 48°30' W 122°45'1 1.2
2015-Jan-22 00:33N 48°31' W 122°46'1 1.0
2015-Jan-21 23:33N 48°32' W 122°47'1 0.8
2015-Jan-21 22:50N 48°32' W 122°48'0 0.7
2015-Jan-21 22:46N 48°32' W 122°48'0 0.8
2015-Jan-21 22:33N 48°32' W 122°49'1 0.9
2015-Jan-21 21:33N 48°32' W 122°50'0 0.2
2015-Jan-21 20:33N 48°32' W 122°50'1 1.1
2015-Jan-21 19:33N 48°33' W 122°50'1 1.2
2015-Jan-21 18:33N 48°34' W 122°51'1 1.5
2015-Jan-21 17:33N 48°35' W 122°53'2 1.8
2015-Jan-21 16:33N 48°35' W 122°56'2 1.6
2015-Jan-21 15:33N 48°36' W 122°58'1 1.1
2015-Jan-21 14:33N 48°36' W 122°59'0 0.3
2015-Jan-21 13:33N 48°35' W 122°60'1 0.6
2015-Jan-21 12:33N 48°36' W 123°01'1 0.6
2015-Jan-21 11:34N 48°36' W 123°00'0 0.0
2015-Jan-21 10:33N 48°36' W 123°00'0 0.0
2015-Jan-21 09:33N 48°36' W 123°00'0 0.0
2015-Jan-21 08:33N 48°36' W 123°00'0 0.0
2015-Jan-21 07:33N 48°36' W 123°00'0 0.0
2015-Jan-21 06:33N 48°36' W 123°00'0 0.0
2015-Jan-21 05:33N 48°36' W 123°00'0 0.0
2015-Jan-21 04:33N 48°36' W 123°00'0 0.0
2015-Jan-21 03:33N 48°36' W 123°00'0 0.0
2015-Jan-21 02:33N 48°36' W 123°00'0 0.0
2015-Jan-21 01:33N 48°36' W 123°00'0 0.0
2015-Jan-21 00:33N 48°36' W 123°00'0 0.0
2015-Jan-20 23:33N 48°36' W 123°00'0 0.1
2015-Jan-20 22:33N 48°36' W 123°00'0 0.0
2015-Jan-20 21:33N 48°36' W 123°00'0 0.0
2015-Jan-20 20:34N 48°36' W 123°00'0 0.0
2015-Jan-20 19:34N 48°36' W 123°00'0 0.1
2015-Jan-20 18:33N 48°36' W 123°00'0 0.3
2015-Jan-20 17:33N 48°36' W 123°01'1 1.1
2015-Jan-20 16:34N 48°37' W 123°02'2 2.0
2015-Jan-20 15:33N 48°39' W 123°02'2 2.0
2015-Jan-20 14:33N 48°40' W 122°60'1 1.3
2015-Jan-20 13:33N 48°42' W 122°60'0 0.4
2015-Jan-20 12:33N 48°42' W 122°60'1 1.1
2015-Jan-20 11:33N 48°43' W 122°60'1 1.0
2015-Jan-20 10:34N 48°44' W 123°00'2 1.8
2015-Jan-20 09:33N 48°44' W 123°03'3 3.4
2015-Jan-20 08:33N 48°42' W 123°07'1 1.4
2015-Jan-20 07:32N 48°43' W 123°09'1 1.0
2015-Jan-20 06:33N 48°44' W 123°09'1 1.4
2015-Jan-20 05:33N 48°45' W 123°10'1 1.3
2015-Jan-20 04:33N 48°46' W 123°12'1 1.0
2015-Jan-20 03:33N 48°46' W 123°13'1 0.5
2015-Jan-20 02:32N 48°46' W 123°12'0 0.4
2015-Jan-20 01:33N 48°46' W 123°12'0 0.2
2015-Jan-20 00:33N 48°46' W 123°12'1 0.5
2015-Jan-19 23:33N 48°46' W 123°12'1 1.3
2015-Jan-19 22:33N 48°47' W 123°14'1 1.2
2015-Jan-19 21:33N 48°48' W 123°15'1 1.0
2015-Jan-19 20:28N 48°49' W 123°16'3 1.5
2015-Jan-19 18:33N 48°50' W 123°20'2 2.0
2015-Jan-19 17:30N 48°51' W 123°22'1 1.5
2015-Jan-19 16:32N 48°51' W 123°24'1 1.1
2015-Jan-19 15:32N 48°52' W 123°25'1 0.6
2015-Jan-19 14:33N 48°52' W 123°26'2 1.5
2015-Jan-19 13:27N 48°54' W 123°28'2 1.7
2015-Jan-19 12:18N 48°55' W 123°30'1 1.2
2015-Jan-19 11:09N 48°56' W 123°31'0 0.8
2015-Jan-19 10:33N 48°56' W 123°32'1 0.5
2015-Jan-19 08:24N 48°57' W 123°33'1 1.1
2015-Jan-19 07:33N 48°58' W 123°34'1 1.4
2015-Jan-19 06:29N 48°59' W 123°35'2 1.7
2015-Jan-19 05:33N 49°00' W 123°37'2 1.8
2015-Jan-19 04:24N 49°02' W 123°39'2 1.9
2015-Jan-19 03:32N 49°03' W 123°40'2 1.7
2015-Jan-19 02:21N 49°05' W 123°42'1 1.6
2015-Jan-19 01:33N 49°06' W 123°42'1 0.8
2015-Jan-19 00:31N 49°07' W 123°43'0 0.0
2015-Jan-18 23:21N 49°07' W 123°43'0 0.0
2015-Jan-18 22:29N 49°07' W 123°43'0 0.0
2015-Jan-18 21:17N 49°07' W 123°43'0 0.0
2015-Jan-18 20:25N 49°07' W 123°43'0 0.0
2015-Jan-18 19:18N 49°07' W 123°43'0 0.0
2015-Jan-18 18:28N 49°07' W 123°43'0 0.0
2015-Jan-18 17:33N 49°07' W 123°43'0 0.0
2015-Jan-18 16:26N 49°07' W 123°43'0 0.0
2015-Jan-18 15:14N 49°07' W 123°43'0 0.0
2015-Jan-18 12:31N 49°07' W 123°43'0 0.1
2015-Jan-18 11:32N 49°07' W 123°43'0 0.2
2015-Jan-18 10:26N 49°07' W 123°43'0 0.2
2015-Jan-18 09:26N 49°07' W 123°43'0 0.1
2015-Jan-18 08:26N 49°07' W 123°43'7 1.9
2015-Jan-18 04:32N 49°01' W 123°37'4 2.8
2015-Jan-18 03:11N 48°57' W 123°33'2 2.4
2015-Jan-18 02:22N 48°56' W 123°31'2 2.4
2015-Jan-18 01:31N 48°55' W 123°29'5 2.3
2015-Jan-17 23:33N 48°52' W 123°24'3 2.7
2015-Jan-17 22:28N 48°50' W 123°20'4 3.2
2015-Jan-17 21:22N 48°49' W 123°15'3 3.1
2015-Jan-17 20:33N 48°46' W 123°13'3 3.1
2015-Jan-17 19:33N 48°45' W 123°09'3 2.8
2015-Jan-17 18:33N 48°42' W 123°08'4 3.5
2015-Jan-17 17:33N 48°39' W 123°05'3 3.4
2015-Jan-17 16:33N 48°37' W 123°02'2 2.4
2015-Jan-17 15:33N 48°36' W 122°58'3 2.7
2015-Jan-17 14:33N 48°35' W 122°54'3 3.3
2015-Jan-17 13:33N 48°33' W 122°50'3 2.8
2015-Jan-17 12:33N 48°32' W 122°47'3 3.4
2015-Jan-17 11:33N 48°30' W 122°43'3 2.8
2015-Jan-17 10:31N 48°27' W 122°41'3 2.9
2015-Jan-17 09:20N 48°24' W 122°38'3 3.5
2015-Jan-17 08:30N 48°26' W 122°34'4 4.4
2015-Jan-17 07:33N 48°22' W 122°32'3 2.7
2015-Jan-17 06:33N 48°24' W 122°30'0 0.0
2015-Jan-17 05:33N 48°24' W 122°30'0 0.0
2015-Jan-17 04:29N 48°24' W 122°30'0 0.0
2015-Jan-17 03:29N 48°24' W 122°30'0 0.0
2015-Jan-17 01:27N 48°24' W 122°30'0 0.0
2015-Jan-16 23:23N 48°24' W 122°30'7 6.3
2015-Jan-16 22:20N 48°17' W 122°30'810.5
2015-Jan-16 21:33N 48°09' W 122°32'1211.2
2015-Jan-16 20:26N 48°01' W 122°18'4 4.4
2015-Jan-16 19:33N 47°59' W 122°13'0 0.0
2015-Jan-16 18:33N 47°59' W 122°13'0 0.0
2015-Jan-16 03:10N 47°59' W 122°13'0 0.0
2015-Jan-16 02:12N 47°59' W 122°13'0 0.0
2015-Jan-16 01:33N 47°59' W 122°13'0 0.0
2015-Jan-16 00:33N 47°59' W 122°13'0 0.0
2015-Jan-15 23:33N 47°59' W 122°13'0 0.0
2015-Jan-15 22:33N 47°59' W 122°13'0 0.0
2015-Jan-15 21:33N 47°59' W 122°13'0 0.0
2015-Jan-15 20:33N 47°59' W 122°13'0 0.0
2015-Jan-15 19:33N 47°59' W 122°13'  

Dump ship's entire track history